Time;durP1;ratioP1;P1;durP2;ratioP2;P2;SDS_P1;SDS_P2;PMS_P1;PMS_P2;Temp;Humidity;BMP_temperature;BMP_pressure;BME280_temperature;BME280_humidity;BME280_pressure;Samples;Min_cycle;Max_cycle;Signal;HPM_P1;HPM_P2
2024/02/22 00:01:14;;;;;;;2.33;1.42;;;;;;;10.45;93.34;99288.66;6132976;23;20096;-67
2024/02/22 00:03:39;;;;;;;5.75;1.80;;;;;;;10.34;94.69;99289.81;6157706;23;20001;-66
2024/02/22 00:06:05;;;;;;;2.10;0.80;;;;;;;10.39;94.44;99289.47;6161891;23;20031;-67
2024/02/22 00:08:31;;;;;;;1.20;1.08;;;;;;;10.38;95.16;99277.91;6138950;23;20933;-67
2024/02/22 00:10:59;;;;;;;7.70;1.98;;;;;;;10.38;94.72;99277.91;6132555;23;20381;-68
2024/02/22 00:13:25;;;;;;;4.55;1.27;;;;;;;10.36;94.74;99258.69;6117595;23;20398;-67
2024/02/22 00:15:51;;;;;;;0.85;0.75;;;;;;;10.28;95.05;99251.03;6093244;23;20051;-67
2024/02/22 00:18:16;;;;;;;0.98;0.93;;;;;;;10.26;95.81;99256.78;6127955;23;20075;-67
2024/02/22 00:20:42;;;;;;;1.52;0.80;;;;;;;10.35;95.40;99248.31;6130909;23;20785;-67
2024/02/22 00:23:07;;;;;;;3.17;1.02;;;;;;;10.31;95.49;99245.66;6145047;23;20380;-67
2024/02/22 00:25:33;;;;;;;2.13;1.17;;;;;;;10.38;96.20;99242.94;6128041;23;20504;-68
2024/02/22 00:27:59;;;;;;;4.10;1.77;;;;;;;10.44;95.88;99240.59;6135448;23;20333;-67
2024/02/22 00:30:25;;;;;;;1.40;1.00;;;;;;;10.34;96.41;99234.09;6124674;23;20016;-67
2024/02/22 00:32:52;;;;;;;2.55;1.10;;;;;;;10.29;96.94;99225.66;6122295;23;20020;-68
2024/02/22 00:35:18;;;;;;;2.85;1.40;;;;;;;10.50;95.43;99223.69;6120558;23;20040;-67
2024/02/22 00:37:43;;;;;;;1.23;1.13;;;;;;;10.42;95.91;99222.16;6100960;23;20040;-67
2024/02/22 00:40:14;;;;;;;5.30;1.30;;;;;;;10.48;95.82;99217.94;6151704;23;20012;-67
2024/02/22 00:42:40;;;;;;;2.17;1.30;;;;;;;10.52;95.15;99209.84;6144535;23;20020;-67
2024/02/22 00:45:06;;;;;;;2.75;1.40;;;;;;;10.32;96.51;99203.34;6163413;23;20088;-66
2024/02/22 00:47:32;;;;;;;2.85;1.58;;;;;;;10.34;97.27;99198.34;6165039;23;20303;-68
2024/02/22 00:49:57;;;;;;;1.60;1.02;;;;;;;10.45;97.02;99188.34;6170871;23;20368;-67
2024/02/22 00:52:23;;;;;;;1.27;1.17;;;;;;;10.42;96.38;99195.25;6168647;23;20444;-67
2024/02/22 00:54:48;;;;;;;1.90;1.65;;;;;;;10.34;98.08;99182.97;6167571;23;20428;-67
2024/02/22 00:57:13;;;;;;;1.40;0.95;;;;;;;10.43;97.92;99175.25;6180171;23;20092;-67
2024/02/22 00:59:39;;;;;;;1.00;0.90;;;;;;;10.45;97.76;99162.16;6160775;23;20037;-67
2024/02/22 01:02:05;;;;;;;3.00;1.55;;;;;;;10.41;98.51;99166.06;6139364;23;20463;-67
2024/02/22 01:04:30;;;;;;;2.42;1.13;;;;;;;10.46;97.18;99147.56;6112951;23;20024;-66
2024/02/22 01:06:58;;;;;;;5.00;0.95;;;;;;;10.39;97.37;99158.38;6149202;23;20009;-66
2024/02/22 01:09:23;;;;;;;9.60;1.35;;;;;;;10.37;97.82;99152.63;6148884;23;20005;-66
2024/02/22 01:11:49;;;;;;;3.67;1.30;;;;;;;10.30;98.93;99139.16;6163898;23;20005;-67
2024/02/22 01:14:19;;;;;;;2.38;2.03;;;;;;;10.40;98.50;99137.59;6142232;23;20361;-67
2024/02/22 01:16:46;;;;;;;0.75;0.73;;;;;;;10.37;98.13;99136.47;6169637;23;20019;-67
2024/02/22 01:19:11;;;;;;;1.38;0.73;;;;;;;10.36;98.27;99128.75;6175065;23;20436;-66
2024/02/22 01:21:36;;;;;;;5.90;1.38;;;;;;;10.36;98.72;99126.84;6176015;23;20205;-66
2024/02/22 01:24:03;;;;;;;5.30;1.70;;;;;;;10.28;99.26;99119.22;6143505;23;20356;-66
2024/02/22 01:26:29;;;;;;;2.08;1.20;;;;;;;10.33;99.37;99105.34;6179273;23;20004;-66
2024/02/22 01:28:54;;;;;;;5.28;1.30;;;;;;;10.32;99.08;99099.19;6179766;23;20456;-67
2024/02/22 01:31:19;;;;;;;1.85;1.20;;;;;;;10.39;98.77;99093.03;6116520;23;20407;-67
2024/02/22 01:33:46;;;;;;;2.92;1.10;;;;;;;10.39;98.86;99095.72;6141962;23;20485;-67
2024/02/22 01:36:12;;;;;;;1.10;1.00;;;;;;;10.43;99.12;99097.22;6112281;23;20017;-67
2024/02/22 01:38:37;;;;;;;3.55;1.02;;;;;;;10.43;98.65;99086.44;6127694;23;20381;-66
2024/02/22 01:41:03;;;;;;;1.92;1.30;;;;;;;10.37;99.21;99074.59;6153846;23;20012;-67
2024/02/22 01:43:29;;;;;;;1.35;1.00;;;;;;;10.30;99.82;99074.59;6144539;23;20063;-67
2024/02/22 01:45:56;;;;;;;2.53;1.35;;;;;;;10.31;99.97;99078.06;6151973;23;20067;-67
2024/02/22 01:48:21;;;;;;;1.35;1.25;;;;;;;10.37;99.37;99073.81;6168538;23;20005;-67
2024/02/22 01:50:52;;;;;;;1.17;0.98;;;;;;;10.50;99.19;99067.59;6163757;23;20317;-67
2024/02/22 01:53:26;;;;;;;1.58;1.02;;;;;;;10.49;99.69;99060.66;6132002;23;20021;-66
2024/02/22 01:55:59;;;;;;;3.97;1.27;;;;;;;10.47;98.33;99062.22;6168168;23;20024;-67
2024/02/22 01:58:25;;;;;;;1.10;0.95;;;;;;;10.44;99.08;99049.53;6111859;23;20017;-67
2024/02/22 02:00:52;;;;;;;1.10;1.00;;;;;;;10.46;99.77;99045.31;6110697;23;20005;-66
2024/02/22 02:03:17;;;;;;;2.40;1.55;;;;;;;10.48;98.87;99037.63;6120833;23;20083;-66
2024/02/22 02:05:43;;;;;;;1.83;1.33;;;;;;;10.51;98.55;99030.69;6153927;23;20361;-67
2024/02/22 02:08:11;;;;;;;2.67;1.50;;;;;;;10.50;99.70;99023.75;6114368;23;20096;-67
2024/02/22 02:10:37;;;;;;;2.53;1.15;;;;;;;10.32;99.69;99029.22;6177718;23;20091;-66
2024/02/22 02:13:04;;;;;;;3.42;1.20;;;;;;;10.47;99.71;99019.91;6170749;23;20055;-66
2024/02/22 02:15:29;;;;;;;3.65;1.52;;;;;;;10.35;99.63;99017.69;6149581;23;20170;-67
2024/02/22 02:17:55;;;;;;;6.80;1.35;;;;;;;10.38;100.00;99013.44;6112366;23;20059;-67
2024/02/22 02:20:26;;;;;;;1.35;0.95;;;;;;;10.51;99.43;99014.53;6112667;23;20345;-67
2024/02/22 02:23:00;;;;;;;1.63;1.42;;;;;;;10.40;100.00;98997.66;6150679;23;20091;-67
2024/02/22 02:25:28;;;;;;;5.78;1.15;;;;;;;10.45;99.44;98998.00;6175162;23;20002;-66
2024/02/22 02:27:53;;;;;;;3.40;1.30;;;;;;;10.43;100.00;98992.25;6153063;23;20013;-67
2024/02/22 02:30:19;;;;;;;1.60;0.95;;;;;;;10.44;100.00;98984.97;6148491;23;20068;-67
2024/02/22 02:32:45;;;;;;;2.38;1.38;;;;;;;10.32;99.91;98986.19;6094737;23;20005;-67
2024/02/22 02:35:10;;;;;;;4.47;1.70;;;;;;;10.31;100.00;98989.28;6139413;23;20100;-66
2024/02/22 02:37:36;;;;;;;5.00;1.50;;;;;;;10.35;100.00;98982.72;6171036;23;20005;-67
2024/02/22 02:40:02;;;;;;;1.42;1.30;;;;;;;10.35;100.00;98971.19;6163643;23;20441;-67
2024/02/22 02:42:27;;;;;;;6.70;1.40;;;;;;;10.35;100.00;98971.97;6170524;23;20353;-67
2024/02/22 02:44:53;;;;;;;1.55;1.17;;;;;;;10.29;100.00;98960.09;6139063;23;20001;-66
2024/02/22 02:47:18;;;;;;;1.63;1.35;;;;;;;10.34;100.00;98956.97;6139579;23;20362;-67
2024/02/22 02:49:44;;;;;;;2.45;1.08;;;;;;;10.34;100.00;98956.19;6112689;23;20075;-67
2024/02/22 02:52:10;;;;;;;2.22;1.50;;;;;;;10.42;100.00;98942.31;6155831;23;20000;-66
2024/02/22 02:54:35;;;;;;;3.67;1.45;;;;;;;10.38;100.00;98941.56;6165690;23;20012;-67
2024/02/22 02:57:00;;;;;;;1.67;0.90;;;;;;;10.38;100.00;98949.63;6151102;23;20364;-67
2024/02/22 02:59:26;;;;;;;2.58;1.08;;;;;;;10.35;100.00;98937.00;6141580;23;20061;-67
2024/02/22 03:01:51;;;;;;;1.40;1.10;;;;;;;10.43;100.00;98932.31;6141616;23;20352;-66
2024/02/22 03:04:18;;;;;;;2.67;1.20;;;;;;;10.35;100.00;98925.44;6145749;23;20000;-66
2024/02/22 03:06:44;;;;;;;1.90;1.75;;;;;;;10.41;100.00;98926.56;6180538;23;20013;-66
2024/02/22 03:09:10;;;;;;;2.60;1.33;;;;;;;10.41;100.00;98919.25;6145161;23;20434;-67
2024/02/22 03:11:35;;;;;;;2.67;1.83;;;;;;;10.30;100.00;98915.88;6146826;23;20100;-66
2024/02/22 03:14:01;;;;;;;2.60;1.63;;;;;;;10.26;100.00;98912.44;6170071;23;20068;-66
2024/02/22 03:16:27;;;;;;;3.47;1.55;;;;;;;10.23;100.00;98904.38;6161590;23;20099;-68
2024/02/22 03:18:53;;;;;;;2.95;1.20;;;;;;;10.26;100.00;98904.38;6151834;23;20305;-67
2024/02/22 03:21:22;;;;;;;1.27;1.02;;;;;;;10.38;100.00;98895.81;6131343;23;20013;-67
2024/02/22 03:23:49;;;;;;;1.13;0.90;;;;;;;10.31;100.00;98887.81;6130926;23;20013;-67
2024/02/22 03:26:16;;;;;;;1.80;1.17;;;;;;;10.34;100.00;98891.63;6114906;23;20005;-67
2024/02/22 03:28:42;;;;;;;5.22;1.20;;;;;;;10.38;100.00;98887.75;6092104;23;20048;-67
2024/02/22 03:31:08;;;;;;;3.97;1.08;;;;;;;10.30;100.00;98883.59;6173970;23;20017;-67
2024/02/22 03:33:34;;;;;;;4.25;1.20;;;;;;;10.32;100.00;98880.50;6144894;23;20023;-67
2024/02/22 03:36:00;;;;;;;2.40;1.70;;;;;;;10.26;100.00;98877.47;6132099;23;20064;-66
2024/02/22 03:38:26;;;;;;;1.63;1.20;;;;;;;10.41;100.00;98865.44;6139041;23;20021;-67
2024/02/22 03:40:53;;;;;;;1.42;1.08;;;;;;;10.42;100.00;98875.03;6111776;23;20344;-67
2024/02/22 03:43:19;;;;;;;1.75;1.40;;;;;;;10.37;100.00;98866.63;6130030;23;21020;-67
2024/02/22 03:45:45;;;;;;;1.73;1.00;;;;;;;10.43;100.00;98855.03;6138869;23;20044;-67
2024/02/22 03:48:11;;;;;;;1.92;1.50;;;;;;;10.39;100.00;98861.63;6068723;23;20020;-66
2024/02/22 03:50:38;;;;;;;2.95;1.40;;;;;;;10.34;100.00;98851.25;6091379;23;20502;-67
2024/02/22 03:53:04;;;;;;;2.60;1.40;;;;;;;10.31;100.00;98844.78;6116143;23;20256;-67
2024/02/22 03:55:30;;;;;;;3.00;1.75;;;;;;;10.33;100.00;98847.06;6133962;23;20072;-67
2024/02/22 03:57:56;;;;;;;2.25;1.67;;;;;;;10.46;100.00;98840.78;6156077;23;20020;-66
2024/02/22 04:00:21;;;;;;;1.60;1.48;;;;;;;10.40;100.00;98844.28;6170321;23;20672;-66
2024/02/22 04:02:48;;;;;;;1.98;1.27;;;;;;;10.42;100.00;98842.75;6188099;23;20036;-68
2024/02/22 04:05:15;;;;;;;2.58;1.30;;;;;;;10.44;100.00;98831.56;6186434;23;20033;-66
2024/02/22 04:07:42;;;;;;;4.60;1.30;;;;;;;10.44;100.00;98829.66;6175895;23;20348;-67
2024/02/22 04:10:09;;;;;;;4.45;1.50;;;;;;;10.47;100.00;98831.53;6170811;23;20013;-67
2024/02/22 04:12:34;;;;;;;1.20;1.10;;;;;;;10.47;100.00;98828.84;6142983;23;20437;-67
2024/02/22 04:15:00;;;;;;;5.32;1.10;;;;;;;10.45;100.00;98825.06;6117211;23;20044;-67
2024/02/22 04:17:26;;;;;;;2.65;1.80;;;;;;;10.47;100.00;98823.47;6152560;23;20036;-66
2024/02/22 04:19:52;;;;;;;4.05;1.70;;;;;;;10.45;100.00;98812.34;6129196;23;20096;-66
2024/02/22 04:22:18;;;;;;;4.82;1.85;;;;;;;10.36;100.00;98816.66;6167853;23;20017;-67
2024/02/22 04:24:44;;;;;;;3.33;1.60;;;;;;;10.43;100.00;98811.22;6159604;23;20503;-66
2024/02/22 04:27:09;;;;;;;2.38;1.42;;;;;;;10.62;100.00;98806.03;6182549;23;20009;-66
2024/02/22 04:29:37;;;;;;;3.08;1.50;;;;;;;10.62;100.00;98806.03;6172150;23;20005;-67
2024/02/22 04:32:03;;;;;;;1.45;1.20;;;;;;;10.70;100.00;98793.28;6144844;23;20359;-67
2024/02/22 04:34:29;;;;;;;1.58;1.00;;;;;;;10.45;100.00;98798.13;6145499;23;20027;-66
2024/02/22 04:36:55;;;;;;;6.22;1.23;;;;;;;10.27;100.00;98789.47;6144572;23;20263;-66
2024/02/22 04:39:20;;;;;;;2.83;1.02;;;;;;;10.26;100.00;98796.75;6121276;23;20359;-66
2024/02/22 04:41:46;;;;;;;2.63;1.55;;;;;;;10.43;100.00;98800.47;6162346;23;20013;-66
2024/02/22 04:44:12;;;;;;;5.43;1.30;;;;;;;10.51;100.00;98789.22;6170087;23;20275;-66
2024/02/22 04:46:38;;;;;;;1.83;1.33;;;;;;;10.46;100.00;98786.97;6184287;23;20024;-66
2024/02/22 04:49:04;;;;;;;4.05;1.38;;;;;;;10.40;100.00;98793.19;6177623;23;20064;-66
2024/02/22 04:51:31;;;;;;;2.88;1.50;;;;;;;10.38;100.00;98792.81;6182513;23;20449;-66
2024/02/22 04:53:57;;;;;;;1.70;0.95;;;;;;;10.34;100.00;98784.78;6163981;23;20066;-66
2024/02/22 04:56:23;;;;;;;2.75;1.48;;;;;;;10.40;100.00;98780.50;6183782;23;20096;-66
2024/02/22 04:58:48;;;;;;;2.05;1.55;;;;;;;10.45;100.00;98779.31;6174428;23;20517;-66
2024/02/22 05:01:14;;;;;;;4.15;1.45;;;;;;;10.46;100.00;98783.50;6123250;23;20013;-67
2024/02/22 05:03:39;;;;;;;1.45;1.20;;;;;;;10.37;100.00;98781.31;6145398;23;20479;-67
2024/02/22 05:06:05;;;;;;;1.35;1.15;;;;;;;10.61;100.00;98780.28;6153844;23;20009;-67
2024/02/22 05:08:31;;;;;;;1.58;1.02;;;;;;;10.54;100.00;98777.66;6118963;23;20456;-66
2024/02/22 05:10:56;;;;;;;1.92;1.20;;;;;;;10.58;100.00;98773.00;6146789;23;20009;-66
2024/02/22 05:13:22;;;;;;;1.65;1.08;;;;;;;10.61;100.00;98766.03;6180391;23;20021;-67
2024/02/22 05:15:50;;;;;;;1.67;1.17;;;;;;;10.50;100.00;98766.16;6184793;23;20099;-66
2024/02/22 05:18:16;;;;;;;2.58;1.25;;;;;;;10.60;100.00;98770.69;6176524;23;20280;-66
2024/02/22 05:20:41;;;;;;;2.47;1.40;;;;;;;10.59;100.00;98761.06;6171097;23;20013;-66
2024/02/22 05:23:07;;;;;;;1.75;1.08;;;;;;;10.65;100.00;98754.09;6184410;23;20019;-66
2024/02/22 05:25:33;;;;;;;2.05;1.25;;;;;;;10.70;100.00;98756.31;6176537;23;20142;-66
2024/02/22 05:27:59;;;;;;;1.75;1.48;;;;;;;10.62;100.00;98752.22;6187887;23;20028;-66
2024/02/22 05:30:25;;;;;;;1.42;1.00;;;;;;;10.64;100.00;98754.50;6146020;23;20020;-67
2024/02/22 05:32:51;;;;;;;2.88;1.20;;;;;;;10.64;100.00;98747.19;6117718;23;20325;-67
2024/02/22 05:35:16;;;;;;;1.52;1.35;;;;;;;10.49;100.00;98736.97;6153257;23;20009;-67
2024/02/22 05:37:42;;;;;;;1.25;1.05;;;;;;;10.52;100.00;98747.69;6156121;23;20333;-66
2024/02/22 05:40:08;;;;;;;2.95;1.52;;;;;;;10.64;100.00;98754.50;6186426;23;20041;-66
2024/02/22 05:42:34;;;;;;;1.48;1.05;;;;;;;10.69;100.00;98749.44;6175305;23;20360;-66
2024/02/22 05:45:00;;;;;;;1.40;0.90;;;;;;;10.79;100.00;98735.09;6169641;23;20409;-66
2024/02/22 05:47:26;;;;;;;2.13;1.00;;;;;;;10.69;100.00;98741.34;6117429;23;20357;-67
2024/02/22 05:49:51;;;;;;;2.70;1.30;;;;;;;10.69;100.00;98738.66;6142358;23;20013;-67
2024/02/22 05:52:17;;;;;;;3.38;1.20;;;;;;;10.72;100.00;98732.47;6164466;23;20020;-66
2024/02/22 05:54:45;;;;;;;2.33;1.48;;;;;;;10.75;100.00;98728.22;6148873;23;20040;-66
2024/02/22 05:57:10;;;;;;;2.05;1.35;;;;;;;10.67;100.00;98730.22;6148045;23;20449;-66
2024/02/22 05:59:36;;;;;;;1.42;0.95;;;;;;;10.78;100.00;98712.00;6182324;23;20116;-66
2024/02/22 06:02:03;;;;;;;1.23;0.93;;;;;;;10.83;100.00;98714.25;6145705;23;20474;-67
2024/02/22 06:04:28;;;;;;;0.85;0.70;;;;;;;10.82;100.00;98707.34;6147070;23;20010;-67
2024/02/22 06:06:53;;;;;;;1.00;0.85;;;;;;;10.85;100.00;98708.47;6157497;23;20012;-67
2024/02/22 06:09:19;;;;;;;0.95;0.93;;;;;;;10.93;100.00;98707.22;6158766;23;20013;-67
2024/02/22 06:11:45;;;;;;;1.98;1.00;;;;;;;10.79;100.00;98691.25;6144554;23;20444;-68
2024/02/22 06:14:10;;;;;;;1.67;1.05;;;;;;;10.79;100.00;98692.00;6117615;23;20059;-67
2024/02/22 06:16:36;;;;;;;1.92;0.88;;;;;;;10.80;100.00;98696.22;6155321;23;20492;-68
2024/02/22 06:19:01;;;;;;;0.85;0.85;;;;;;;10.84;100.00;98690.78;6121745;23;20040;-67
2024/02/22 06:21:27;;;;;;;1.55;0.73;;;;;;;10.87;100.00;98682.69;6129985;23;20834;-67
2024/02/22 06:23:52;;;;;;;1.85;1.63;;;;;;;10.95;100.00;98679.88;6121766;23;20343;-67
2024/02/22 06:26:18;;;;;;;1.85;0.90;;;;;;;10.89;100.00;98679.56;6153857;23;20020;-67
2024/02/22 06:28:44;;;;;;;0.93;0.80;;;;;;;10.86;100.00;98681.13;6154260;23;20084;-68
2024/02/22 06:31:09;;;;;;;2.15;1.10;;;;;;;10.95;100.00;98671.78;6145821;23;20060;-67
2024/02/22 06:33:35;;;;;;;1.38;0.90;;;;;;;10.92;100.00;98672.63;6122291;23;20013;-67
2024/02/22 06:36:00;;;;;;;1.02;0.88;;;;;;;10.86;100.00;98666.91;6146975;23;20013;-67
2024/02/22 06:38:26;;;;;;;1.10;0.95;;;;;;;10.81;100.00;98662.75;6122893;23;20039;-67
2024/02/22 06:40:52;;;;;;;1.63;1.20;;;;;;;10.89;100.00;98672.25;6123186;23;20787;-67
2024/02/22 06:43:17;;;;;;;1.38;1.05;;;;;;;10.91;100.00;98671.84;6147564;23;20032;-67
2024/02/22 06:45:46;;;;;;;1.77;0.93;;;;;;;10.68;100.00;98664.44;6156995;23;20484;-68
2024/02/22 06:48:12;;;;;;;1.33;0.95;;;;;;;10.57;100.00;98661.13;6156406;23;20017;-68
2024/02/22 06:50:38;;;;;;;1.25;1.15;;;;;;;10.66;100.00;98656.03;6172764;23;20360;-67
2024/02/22 06:53:04;;;;;;;1.00;0.95;;;;;;;10.79;100.00;98654.31;6191622;23;20072;-67
2024/02/22 06:55:32;;;;;;;1.75;1.15;;;;;;;10.96;100.00;98657.91;6154926;23;20118;-67
2024/02/22 06:57:58;;;;;;;1.80;1.05;;;;;;;11.03;100.00;98649.75;6191874;23;20001;-67
2024/02/22 07:00:24;;;;;;;0.85;0.85;;;;;;;11.04;100.00;98662.03;6191378;23;20282;-67
2024/02/22 07:02:49;;;;;;;1.05;0.95;;;;;;;10.99;100.00;98659.06;6155382;23;20075;-67
2024/02/22 07:05:15;;;;;;;1.20;0.90;;;;;;;10.78;100.00;98652.78;6178067;23;20009;-67
2024/02/22 07:07:41;;;;;;;1.55;1.30;;;;;;;10.82;100.00;98648.09;6156261;23;20019;-67
2024/02/22 07:10:07;;;;;;;0.88;0.85;;;;;;;10.90;100.00;98648.78;6182483;23;20012;-67
2024/02/22 07:12:33;;;;;;;1.30;1.00;;;;;;;11.01;100.00;98654.78;6182430;23;20021;-67
2024/02/22 07:14:59;;;;;;;1.30;0.93;;;;;;;10.93;100.00;98652.59;6193201;23;20008;-67
2024/02/22 07:17:25;;;;;;;1.02;0.82;;;;;;;10.95;100.00;98651.03;6156121;23;20005;-67
2024/02/22 07:19:50;;;;;;;1.63;0.85;;;;;;;11.00;100.00;98647.09;6181858;23;20326;-67
2024/02/22 07:22:17;;;;;;;1.52;0.88;;;;;;;11.05;100.00;98643.97;6181168;23;20442;-67
2024/02/22 07:24:43;;;;;;;1.33;0.90;;;;;;;11.11;100.00;98642.34;6191131;23;20013;-67
2024/02/22 07:27:09;;;;;;;1.20;0.77;;;;;;;11.13;100.00;98634.59;6192894;23;20456;-67
2024/02/22 07:29:35;;;;;;;1.00;0.73;;;;;;;11.15;100.00;98632.28;6192399;23;20439;-67
2024/02/22 07:32:00;;;;;;;1.13;1.02;;;;;;;11.09;100.00;98629.25;6191426;23;20061;-67
2024/02/22 07:34:26;;;;;;;2.22;0.80;;;;;;;11.15;100.00;98637.66;6183093;23;20468;-67
2024/02/22 07:36:51;;;;;;;0.90;0.80;;;;;;;11.19;100.00;98638.38;6192659;23;20017;-67
2024/02/22 07:39:16;;;;;;;0.75;0.70;;;;;;;10.89;100.00;98637.25;6181820;23;20009;-67
2024/02/22 07:41:43;;;;;;;1.25;1.10;;;;;;;11.00;100.00;98626.31;6192730;23;20028;-66
2024/02/22 07:44:10;;;;;;;1.10;0.93;;;;;;;11.09;100.00;98634.63;6190670;23;20071;-66
2024/02/22 07:46:35;;;;;;;1.38;0.95;;;;;;;11.14;100.00;98630.72;6192392;23;20009;-67
2024/02/22 07:49:01;;;;;;;1.02;0.90;;;;;;;11.23;100.00;98631.75;6183033;23;20028;-68
2024/02/22 07:51:27;;;;;;;1.10;1.00;;;;;;;11.17;100.00;98624.53;6182059;23;20092;-67
2024/02/22 07:53:52;;;;;;;1.00;0.88;;;;;;;11.19;100.00;98624.91;6194498;23;20013;-66
2024/02/22 07:56:18;;;;;;;0.70;0.68;;;;;;;11.15;100.00;98624.94;6183462;23;20017;-67
2024/02/22 07:58:51;;;;;;;1.30;1.05;;;;;;;11.29;100.00;98622.03;6185311;23;20012;-67
2024/02/22 08:01:17;;;;;;;2.47;1.33;;;;;;;11.20;100.00;98618.31;6157598;23;20063;-67
2024/02/22 08:03:43;;;;;;;1.02;0.82;;;;;;;11.26;100.00;98622.09;6183737;23;20340;-67
2024/02/22 08:06:10;;;;;;;1.05;0.90;;;;;;;11.35;100.00;98625.78;6181503;23;20005;-67
2024/02/22 08:08:36;;;;;;;0.95;0.93;;;;;;;11.32;100.00;98615.84;6184681;23;20143;-67
2024/02/22 08:11:02;;;;;;;1.48;1.02;;;;;;;11.31;100.00;98616.22;6157317;23;20091;-67
2024/02/22 08:13:27;;;;;;;1.98;1.10;;;;;;;11.27;100.00;98623.59;6182089;23;20475;-67
2024/02/22 08:16:02;;;;;;;1.10;1.00;;;;;;;11.30;100.00;98614.72;6157535;23;20043;-66
2024/02/22 08:18:28;;;;;;;1.83;0.85;;;;;;;11.33;100.00;98605.78;6194576;23;20020;-67
2024/02/22 08:20:54;;;;;;;1.70;1.08;;;;;;;11.23;100.00;98607.50;6156384;23;20012;-67
2024/02/22 08:23:19;;;;;;;1.02;0.77;;;;;;;11.30;100.00;98612.00;6183925;23;20013;-67
2024/02/22 08:25:45;;;;;;;1.05;0.82;;;;;;;11.38;100.00;98608.03;6184876;23;20063;-67
2024/02/22 08:28:10;;;;;;;0.70;0.70;;;;;;;11.35;100.00;98596.13;6192141;23;20028;-67
2024/02/22 08:30:36;;;;;;;0.43;0.43;;;;;;;11.40;100.00;98594.91;6156508;23;20013;-67
2024/02/22 08:33:02;;;;;;;2.45;1.05;;;;;;;11.55;100.00;98601.59;6184346;23;20021;-67
2024/02/22 08:35:28;;;;;;;2.28;0.77;;;;;;;11.47;100.00;98595.56;6184533;23;20104;-67
2024/02/22 08:37:53;;;;;;;1.42;0.85;;;;;;;11.51;100.00;98595.50;6194104;23;20013;-67
2024/02/22 08:40:19;;;;;;;0.75;0.70;;;;;;;11.56;100.00;98592.31;6183978;23;20448;-67
2024/02/22 08:42:45;;;;;;;1.73;1.63;;;;;;;11.54;100.00;98586.56;6158024;23;20084;-67
2024/02/22 08:45:14;;;;;;;0.80;0.80;;;;;;;11.49;100.00;98579.72;6168083;23;20013;-66
2024/02/22 08:47:41;;;;;;;0.73;0.70;;;;;;;11.52;100.00;98580.81;6192566;23;20032;-67
2024/02/22 08:50:07;;;;;;;1.25;1.00;;;;;;;11.53;100.00;98587.75;6184259;23;20044;-67
2024/02/22 08:52:33;;;;;;;1.30;0.75;;;;;;;11.56;100.00;98587.69;6194250;23;20008;-67
2024/02/22 08:54:58;;;;;;;1.15;0.73;;;;;;;11.68;100.00;98589.06;6192686;23;20009;-67
2024/02/22 08:57:24;;;;;;;0.93;0.93;;;;;;;11.69;100.00;98585.94;6183600;23;20020;-67
2024/02/22 08:59:51;;;;;;;1.55;1.15;;;;;;;11.75;100.00;98588.91;6193520;23;20001;-67
2024/02/22 09:02:17;;;;;;;0.95;0.73;;;;;;;11.74;100.00;98585.47;6191610;23;20012;-67
2024/02/22 09:04:43;;;;;;;1.23;1.08;;;;;;;11.70;100.00;98575.91;6184337;23;20039;-67
2024/02/22 09:07:08;;;;;;;1.48;1.00;;;;;;;11.59;100.00;98576.06;6157845;23;20009;-67
2024/02/22 09:09:34;;;;;;;1.20;1.10;;;;;;;11.64;100.00;98578.31;6166232;23;20341;-67
2024/02/22 09:12:00;;;;;;;1.67;1.30;;;;;;;11.66;100.00;98575.22;6193804;23;20009;-67
2024/02/22 09:14:26;;;;;;;1.55;1.20;;;;;;;11.65;100.00;98558.28;6193565;23;20075;-67
2024/02/22 09:16:51;;;;;;;0.60;0.60;;;;;;;11.69;100.00;98560.94;6166857;23;20005;-67
2024/02/22 09:19:17;;;;;;;1.77;1.05;;;;;;;11.66;100.00;98559.81;6183044;23;20029;-67
2024/02/22 09:21:46;;;;;;;1.10;1.00;;;;;;;11.70;100.00;98567.84;6163516;23;20011;-67
2024/02/22 09:24:12;;;;;;;2.00;1.50;;;;;;;11.68;100.00;98567.47;6224033;23;20641;-67
2024/02/22 09:26:37;;;;;;;1.10;1.00;;;;;;;11.84;100.00;98556.78;6238332;23;20020;-67
2024/02/22 09:29:03;;;;;;;2.53;1.40;;;;;;;11.87;100.00;98555.19;6222521;23;20324;-67
2024/02/22 09:31:28;;;;;;;2.35;1.13;;;;;;;11.88;100.00;98554.78;6223615;23;20455;-67
2024/02/22 09:33:55;;;;;;;1.00;0.90;;;;;;;11.96;100.00;98547.31;6223599;23;20014;-67
2024/02/22 09:36:21;;;;;;;1.75;1.23;;;;;;;11.99;100.00;98544.53;6237894;23;19997;-67
2024/02/22 09:38:47;;;;;;;1.50;1.10;;;;;;;12.06;100.00;98546.34;6213538;23;20011;-67
2024/02/22 09:41:13;;;;;;;1.42;1.10;;;;;;;12.05;100.00;98550.97;6223823;23;20022;-67
2024/02/22 09:43:40;;;;;;;2.67;1.23;;;;;;;12.11;100.00;98543.16;6214347;23;20032;-67
2024/02/22 09:46:07;;;;;;;3.00;1.60;;;;;;;12.10;100.00;98547.78;6237784;23;20502;-67
2024/02/22 09:48:32;;;;;;;1.65;1.10;;;;;;;12.12;100.00;98541.97;6223329;23;20482;-67
2024/02/22 09:50:59;;;;;;;2.17;1.33;;;;;;;12.19;100.00;98533.75;6213790;23;20000;-67
2024/02/22 09:53:25;;;;;;;2.33;1.38;;;;;;;12.19;100.00;98531.81;6213835;23;20444;-67
2024/02/22 09:55:50;;;;;;;1.65;1.30;;;;;;;12.22;100.00;98522.88;6247539;23;20008;-67
2024/02/22 09:58:16;;;;;;;1.38;1.20;;;;;;;12.37;100.00;98513.28;6211705;23;20051;-67
2024/02/22 10:00:42;;;;;;;2.60;1.08;;;;;;;12.38;100.00;98506.72;6222842;23;20084;-67
2024/02/22 10:03:08;;;;;;;2.40;1.38;;;;;;;12.27;100.00;98505.44;6212019;23;20354;-67
2024/02/22 10:05:37;;;;;;;1.85;1.02;;;;;;;12.35;100.00;98507.53;6221849;23;20039;-67
2024/02/22 10:08:16;;;;;;;2.00;1.00;;;;;;;12.56;100.00;98501.66;6213226;23;20012;-67
2024/02/22 10:10:41;;;;;;;2.10;1.40;;;;;;;12.52;100.00;98505.63;6222884;23;20008;-67
2024/02/22 10:13:07;;;;;;;1.60;1.20;;;;;;;12.59;100.00;98500.84;6213677;23;20012;-67
2024/02/22 10:15:33;;;;;;;2.30;1.30;;;;;;;12.62;100.00;98494.59;6222517;23;20395;-67
2024/02/22 10:17:59;;;;;;;1.63;1.15;;;;;;;12.56;100.00;98490.13;6213001;23;20058;-67
2024/02/22 10:20:32;;;;;;;2.22;1.05;;;;;;;12.58;100.00;98491.19;6220882;23;20021;-67
2024/02/22 10:23:08;;;;;;;1.67;1.10;;;;;;;12.54;100.00;98482.41;6236655;23;20015;-67
2024/02/22 10:25:35;;;;;;;1.67;1.10;;;;;;;12.65;100.00;98464.06;6223294;23;20035;-67
2024/02/22 10:28:00;;;;;;;2.28;1.25;;;;;;;12.81;100.00;98462.50;6213425;23;20340;-67
2024/02/22 10:30:26;;;;;;;1.52;0.95;;;;;;;12.78;100.00;98447.91;6236774;23;20023;-67
2024/02/22 10:32:55;;;;;;;2.00;1.08;;;;;;;12.81;100.00;98454.41;6213852;23;20004;-67
2024/02/22 10:35:23;;;;;;;0.77;0.73;;;;;;;12.90;100.00;98457.28;6237026;23;20513;-67
2024/02/22 10:37:52;;;;;;;1.20;1.08;;;;;;;12.89;100.00;98459.19;6223291;23;20012;-67
2024/02/22 10:40:18;;;;;;;2.38;0.98;;;;;;;12.96;100.00;98474.50;6211504;23;20012;-67
2024/02/22 10:42:44;;;;;;;1.85;1.23;;;;;;;13.03;100.00;98480.50;6223447;23;20017;-67
2024/02/22 10:45:11;;;;;;;3.50;1.60;;;;;;;13.06;100.00;98479.66;6211797;23;20012;-67
2024/02/22 10:47:39;;;;;;;2.65;1.02;;;;;;;12.96;100.00;98486.06;6221437;23;20000;-67
2024/02/22 10:50:06;;;;;;;1.85;1.15;;;;;;;13.01;100.00;98482.06;6222598;23;20447;-67
2024/02/22 10:52:37;;;;;;;1.13;0.77;;;;;;;12.94;100.00;98487.66;6212526;23;20458;-67
2024/02/22 10:55:06;;;;;;;1.90;1.10;;;;;;;12.91;100.00;98485.81;6213424;23;20009;-67
2024/02/22 10:57:35;;;;;;;1.27;1.00;;;;;;;12.85;100.00;98465.91;6213054;23;20024;-66
2024/02/22 11:00:01;;;;;;;1.50;1.20;;;;;;;12.82;100.00;98467.50;6213304;23;20031;-67
2024/02/22 11:02:28;;;;;;;1.00;0.77;;;;;;;12.82;100.00;98459.38;6236762;23;20073;-67
2024/02/22 11:05:07;;;;;;;2.88;1.30;;;;;;;12.74;100.00;98443.78;6212847;23;20012;-67
2024/02/22 11:07:41;;;;;;;0.47;0.47;;;;;;;12.90;100.00;98444.53;6213309;23;20016;-67
2024/02/22 11:10:10;;;;;;;1.58;0.80;;;;;;;12.87;100.00;98429.19;6236485;23;20013;-67
2024/02/22 11:12:35;;;;;;;1.17;1.00;;;;;;;12.93;100.00;98427.44;6222172;23;20343;-67
2024/02/22 11:15:09;;;;;;;2.35;1.17;;;;;;;13.00;100.00;98426.53;6235885;23;20012;-67
2024/02/22 11:17:49;;;;;;;2.45;0.88;;;;;;;13.06;100.00;98409.41;6222806;23;20020;-67
2024/02/22 11:20:17;;;;;;;1.38;1.02;;;;;;;13.26;100.00;98407.31;6212756;23;20420;-67
2024/02/22 11:22:42;;;;;;;1.13;0.93;;;;;;;13.14;100.00;98404.56;6203460;23;20017;-67